sensor_id;sensor_type;location;lat;lon;timestamp;P1;durP1;ratioP1;P2;durP2;ratioP2
39974;SDS011;25652;52.852;6.602;2024-02-14T00:01:50;6.80;;;5.30;;
39974;SDS011;25652;52.852;6.602;2024-02-14T00:04:16;6.85;;;5.38;;
39974;SDS011;25652;52.852;6.602;2024-02-14T00:06:41;6.90;;;4.73;;
39974;SDS011;25652;52.852;6.602;2024-02-14T00:09:06;5.60;;;4.90;;
39974;SDS011;25652;52.852;6.602;2024-02-14T00:11:32;5.90;;;4.60;;
39974;SDS011;25652;52.852;6.602;2024-02-14T00:13:58;5.97;;;4.90;;
39974;SDS011;25652;52.852;6.602;2024-02-14T00:16:23;6.23;;;5.10;;
39974;SDS011;25652;52.852;6.602;2024-02-14T00:18:49;6.47;;;5.10;;
39974;SDS011;25652;52.852;6.602;2024-02-14T00:21:14;6.37;;;4.57;;
39974;SDS011;25652;52.852;6.602;2024-02-14T00:23:40;7.23;;;4.93;;
39974;SDS011;25652;52.852;6.602;2024-02-14T00:26:05;5.55;;;4.60;;
39974;SDS011;25652;52.852;6.602;2024-02-14T00:28:30;7.53;;;4.80;;
39974;SDS011;25652;52.852;6.602;2024-02-14T00:30:56;5.57;;;4.97;;
39974;SDS011;25652;52.852;6.602;2024-02-14T00:33:21;6.25;;;4.55;;
39974;SDS011;25652;52.852;6.602;2024-02-14T00:35:47;5.70;;;4.57;;
39974;SDS011;25652;52.852;6.602;2024-02-14T00:38:12;5.63;;;4.53;;
39974;SDS011;25652;52.852;6.602;2024-02-14T00:40:38;5.53;;;4.35;;
39974;SDS011;25652;52.852;6.602;2024-02-14T00:43:03;7.47;;;4.53;;
39974;SDS011;25652;52.852;6.602;2024-02-14T00:45:29;5.07;;;4.47;;
39974;SDS011;25652;52.852;6.602;2024-02-14T00:47:54;6.65;;;4.85;;
39974;SDS011;25652;52.852;6.602;2024-02-14T00:50:20;6.07;;;4.60;;
39974;SDS011;25652;52.852;6.602;2024-02-14T00:52:45;6.60;;;4.70;;
39974;SDS011;25652;52.852;6.602;2024-02-14T00:55:11;5.95;;;4.45;;
39974;SDS011;25652;52.852;6.602;2024-02-14T00:57:36;5.73;;;4.80;;
39974;SDS011;25652;52.852;6.602;2024-02-14T01:00:02;5.20;;;4.45;;
39974;SDS011;25652;52.852;6.602;2024-02-14T01:02:28;5.43;;;4.47;;
39974;SDS011;25652;52.852;6.602;2024-02-14T01:04:53;5.32;;;4.50;;
39974;SDS011;25652;52.852;6.602;2024-02-14T01:07:18;6.10;;;4.90;;
39974;SDS011;25652;52.852;6.602;2024-02-14T01:09:44;6.03;;;4.70;;
39974;SDS011;25652;52.852;6.602;2024-02-14T01:12:09;6.47;;;4.73;;
39974;SDS011;25652;52.852;6.602;2024-02-14T01:14:35;5.87;;;4.43;;
39974;SDS011;25652;52.852;6.602;2024-02-14T01:17:00;5.25;;;4.38;;
39974;SDS011;25652;52.852;6.602;2024-02-14T01:19:26;4.53;;;3.97;;
39974;SDS011;25652;52.852;6.602;2024-02-14T01:21:51;4.30;;;3.90;;
39974;SDS011;25652;52.852;6.602;2024-02-14T01:24:17;4.78;;;4.28;;
39974;SDS011;25652;52.852;6.602;2024-02-14T01:26:42;4.50;;;4.10;;
39974;SDS011;25652;52.852;6.602;2024-02-14T01:29:08;4.70;;;4.20;;
39974;SDS011;25652;52.852;6.602;2024-02-14T01:31:33;5.20;;;4.33;;
39974;SDS011;25652;52.852;6.602;2024-02-14T01:33:58;6.20;;;4.30;;
39974;SDS011;25652;52.852;6.602;2024-02-14T01:36:24;5.40;;;4.35;;
39974;SDS011;25652;52.852;6.602;2024-02-14T01:38:49;4.27;;;3.87;;
39974;SDS011;25652;52.852;6.602;2024-02-14T01:41:15;5.27;;;4.10;;
39974;SDS011;25652;52.852;6.602;2024-02-14T01:43:40;6.10;;;4.20;;
39974;SDS011;25652;52.852;6.602;2024-02-14T01:46:06;4.70;;;3.93;;
39974;SDS011;25652;52.852;6.602;2024-02-14T01:48:35;4.35;;;3.60;;
39974;SDS011;25652;52.852;6.602;2024-02-14T01:51:02;4.60;;;3.80;;
39974;SDS011;25652;52.852;6.602;2024-02-14T01:53:29;4.20;;;3.60;;
39974;SDS011;25652;52.852;6.602;2024-02-14T01:55:56;3.85;;;3.55;;
39974;SDS011;25652;52.852;6.602;2024-02-14T01:58:23;3.67;;;3.37;;
39974;SDS011;25652;52.852;6.602;2024-02-14T02:00:49;4.27;;;3.00;;
39974;SDS011;25652;52.852;6.602;2024-02-14T02:03:16;3.78;;;3.30;;
39974;SDS011;25652;52.852;6.602;2024-02-14T02:05:42;3.50;;;3.20;;
39974;SDS011;25652;52.852;6.602;2024-02-14T02:08:07;3.60;;;3.30;;
39974;SDS011;25652;52.852;6.602;2024-02-14T02:10:33;3.30;;;3.00;;
39974;SDS011;25652;52.852;6.602;2024-02-14T02:12:59;3.53;;;3.23;;
39974;SDS011;25652;52.852;6.602;2024-02-14T02:15:24;3.45;;;3.15;;
39974;SDS011;25652;52.852;6.602;2024-02-14T02:17:50;4.07;;;3.30;;
39974;SDS011;25652;52.852;6.602;2024-02-14T02:20:16;4.07;;;3.13;;
39974;SDS011;25652;52.852;6.602;2024-02-14T02:22:45;3.05;;;2.75;;
39974;SDS011;25652;52.852;6.602;2024-02-14T02:25:11;3.50;;;3.17;;
39974;SDS011;25652;52.852;6.602;2024-02-14T02:27:37;3.30;;;3.00;;
39974;SDS011;25652;52.852;6.602;2024-02-14T02:30:05;3.30;;;3.00;;
39974;SDS011;25652;52.852;6.602;2024-02-14T02:32:32;3.08;;;2.78;;
39974;SDS011;25652;52.852;6.602;2024-02-14T02:34:57;3.45;;;2.97;;
39974;SDS011;25652;52.852;6.602;2024-02-14T02:37:23;2.80;;;2.60;;
39974;SDS011;25652;52.852;6.602;2024-02-14T02:39:48;2.90;;;2.70;;
39974;SDS011;25652;52.852;6.602;2024-02-14T02:42:14;3.10;;;2.80;;
39974;SDS011;25652;52.852;6.602;2024-02-14T02:44:39;4.43;;;2.85;;
39974;SDS011;25652;52.852;6.602;2024-02-14T02:47:05;2.63;;;2.43;;
39974;SDS011;25652;52.852;6.602;2024-02-14T02:49:30;2.60;;;2.40;;
39974;SDS011;25652;52.852;6.602;2024-02-14T02:51:56;2.88;;;2.60;;
39974;SDS011;25652;52.852;6.602;2024-02-14T02:54:21;2.90;;;2.60;;
39974;SDS011;25652;52.852;6.602;2024-02-14T02:56:47;2.78;;;2.58;;
39974;SDS011;25652;52.852;6.602;2024-02-14T02:59:12;3.07;;;2.50;;
39974;SDS011;25652;52.852;6.602;2024-02-14T03:01:38;2.60;;;2.40;;
39974;SDS011;25652;52.852;6.602;2024-02-14T03:04:03;2.88;;;2.65;;
39974;SDS011;25652;52.852;6.602;2024-02-14T03:06:29;2.60;;;2.40;;
39974;SDS011;25652;52.852;6.602;2024-02-14T03:08:55;2.75;;;2.30;;
39974;SDS011;25652;52.852;6.602;2024-02-14T03:11:21;2.40;;;2.20;;
39974;SDS011;25652;52.852;6.602;2024-02-14T03:13:47;2.80;;;2.60;;
39974;SDS011;25652;52.852;6.602;2024-02-14T03:16:13;2.20;;;2.10;;
39974;SDS011;25652;52.852;6.602;2024-02-14T03:18:38;2.37;;;2.20;;
39974;SDS011;25652;52.852;6.602;2024-02-14T03:21:04;2.30;;;2.20;;
39974;SDS011;25652;52.852;6.602;2024-02-14T03:23:29;2.40;;;2.20;;
39974;SDS011;25652;52.852;6.602;2024-02-14T03:25:54;2.10;;;2.00;;
39974;SDS011;25652;52.852;6.602;2024-02-14T03:28:20;2.30;;;2.10;;
39974;SDS011;25652;52.852;6.602;2024-02-14T03:30:45;2.43;;;2.27;;
39974;SDS011;25652;52.852;6.602;2024-02-14T03:33:11;2.35;;;2.15;;
39974;SDS011;25652;52.852;6.602;2024-02-14T03:35:36;2.27;;;2.07;;
39974;SDS011;25652;52.852;6.602;2024-02-14T03:38:02;2.27;;;2.17;;
39974;SDS011;25652;52.852;6.602;2024-02-14T03:40:27;2.15;;;2.05;;
39974;SDS011;25652;52.852;6.602;2024-02-14T03:42:53;2.00;;;1.90;;
39974;SDS011;25652;52.852;6.602;2024-02-14T03:45:18;2.03;;;1.93;;
39974;SDS011;25652;52.852;6.602;2024-02-14T03:47:44;2.10;;;2.00;;
39974;SDS011;25652;52.852;6.602;2024-02-14T03:50:09;2.00;;;1.90;;
39974;SDS011;25652;52.852;6.602;2024-02-14T03:52:35;2.07;;;1.93;;
39974;SDS011;25652;52.852;6.602;2024-02-14T03:55:01;2.10;;;2.00;;
39974;SDS011;25652;52.852;6.602;2024-02-14T03:57:27;2.22;;;2.03;;
39974;SDS011;25652;52.852;6.602;2024-02-14T03:59:53;2.30;;;2.10;;
39974;SDS011;25652;52.852;6.602;2024-02-14T04:02:18;2.30;;;2.10;;
39974;SDS011;25652;52.852;6.602;2024-02-14T04:04:44;2.15;;;2.05;;
39974;SDS011;25652;52.852;6.602;2024-02-14T04:07:09;2.00;;;1.90;;
39974;SDS011;25652;52.852;6.602;2024-02-14T04:09:35;2.07;;;1.97;;
39974;SDS011;25652;52.852;6.602;2024-02-14T04:12:01;2.20;;;2.10;;
39974;SDS011;25652;52.852;6.602;2024-02-14T04:14:26;2.20;;;2.10;;
39974;SDS011;25652;52.852;6.602;2024-02-14T04:16:52;2.30;;;2.20;;
39974;SDS011;25652;52.852;6.602;2024-02-14T04:19:17;2.17;;;1.97;;
39974;SDS011;25652;52.852;6.602;2024-02-14T04:21:43;2.00;;;1.90;;
39974;SDS011;25652;52.852;6.602;2024-02-14T04:24:09;1.90;;;1.80;;
39974;SDS011;25652;52.852;6.602;2024-02-14T04:26:35;2.20;;;2.00;;
39974;SDS011;25652;52.852;6.602;2024-02-14T04:29:00;2.00;;;1.90;;
39974;SDS011;25652;52.852;6.602;2024-02-14T04:31:26;1.88;;;1.77;;
39974;SDS011;25652;52.852;6.602;2024-02-14T04:33:52;2.20;;;2.10;;
39974;SDS011;25652;52.852;6.602;2024-02-14T04:36:18;2.03;;;1.92;;
39974;SDS011;25652;52.852;6.602;2024-02-14T04:38:44;1.90;;;1.80;;
39974;SDS011;25652;52.852;6.602;2024-02-14T04:41:09;1.80;;;1.70;;
39974;SDS011;25652;52.852;6.602;2024-02-14T04:43:35;1.80;;;1.70;;
39974;SDS011;25652;52.852;6.602;2024-02-14T04:46:00;1.80;;;1.70;;
39974;SDS011;25652;52.852;6.602;2024-02-14T04:48:26;2.05;;;1.75;;
39974;SDS011;25652;52.852;6.602;2024-02-14T04:50:51;1.97;;;1.87;;
39974;SDS011;25652;52.852;6.602;2024-02-14T04:53:17;1.90;;;1.80;;
39974;SDS011;25652;52.852;6.602;2024-02-14T04:55:42;1.87;;;1.77;;
39974;SDS011;25652;52.852;6.602;2024-02-14T04:58:07;2.37;;;2.17;;
39974;SDS011;25652;52.852;6.602;2024-02-14T05:00:33;1.80;;;1.70;;
39974;SDS011;25652;52.852;6.602;2024-02-14T05:02:58;1.87;;;1.77;;
39974;SDS011;25652;52.852;6.602;2024-02-14T05:05:24;1.80;;;1.70;;
39974;SDS011;25652;52.852;6.602;2024-02-14T05:07:49;1.83;;;1.73;;
39974;SDS011;25652;52.852;6.602;2024-02-14T05:10:15;1.80;;;1.70;;
39974;SDS011;25652;52.852;6.602;2024-02-14T05:12:40;2.00;;;1.90;;
39974;SDS011;25652;52.852;6.602;2024-02-14T05:15:06;1.90;;;1.70;;
39974;SDS011;25652;52.852;6.602;2024-02-14T05:17:32;2.00;;;1.90;;
39974;SDS011;25652;52.852;6.602;2024-02-14T05:19:57;1.93;;;1.83;;
39974;SDS011;25652;52.852;6.602;2024-02-14T05:22:22;1.80;;;1.70;;
39974;SDS011;25652;52.852;6.602;2024-02-14T05:24:48;1.90;;;1.80;;
39974;SDS011;25652;52.852;6.602;2024-02-14T05:27:14;1.70;;;1.60;;
39974;SDS011;25652;52.852;6.602;2024-02-14T05:29:39;1.80;;;1.70;;
39974;SDS011;25652;52.852;6.602;2024-02-14T05:32:05;1.77;;;1.67;;
39974;SDS011;25652;52.852;6.602;2024-02-14T05:34:31;1.90;;;1.80;;
39974;SDS011;25652;52.852;6.602;2024-02-14T05:36:56;1.80;;;1.70;;
39974;SDS011;25652;52.852;6.602;2024-02-14T05:39:22;1.90;;;1.80;;
39974;SDS011;25652;52.852;6.602;2024-02-14T05:41:47;1.90;;;1.80;;
39974;SDS011;25652;52.852;6.602;2024-02-14T05:44:13;2.00;;;1.90;;
39974;SDS011;25652;52.852;6.602;2024-02-14T05:46:38;2.10;;;2.00;;
39974;SDS011;25652;52.852;6.602;2024-02-14T05:49:04;1.90;;;1.80;;
39974;SDS011;25652;52.852;6.602;2024-02-14T05:51:29;2.00;;;1.90;;
39974;SDS011;25652;52.852;6.602;2024-02-14T05:53:55;1.80;;;1.70;;
39974;SDS011;25652;52.852;6.602;2024-02-14T05:56:20;1.90;;;1.80;;
39974;SDS011;25652;52.852;6.602;2024-02-14T05:58:45;1.77;;;1.67;;
39974;SDS011;25652;52.852;6.602;2024-02-14T06:01:11;1.77;;;1.67;;
39974;SDS011;25652;52.852;6.602;2024-02-14T06:03:36;1.63;;;1.53;;
39974;SDS011;25652;52.852;6.602;2024-02-14T06:06:02;2.00;;;1.90;;
39974;SDS011;25652;52.852;6.602;2024-02-14T06:08:31;1.70;;;1.60;;
39974;SDS011;25652;52.852;6.602;2024-02-14T06:10:56;1.80;;;1.70;;
39974;SDS011;25652;52.852;6.602;2024-02-14T06:13:22;1.70;;;1.60;;
39974;SDS011;25652;52.852;6.602;2024-02-14T06:15:47;1.80;;;1.70;;
39974;SDS011;25652;52.852;6.602;2024-02-14T06:18:12;1.73;;;1.63;;
39974;SDS011;25652;52.852;6.602;2024-02-14T06:20:38;1.80;;;1.70;;
39974;SDS011;25652;52.852;6.602;2024-02-14T06:23:03;1.70;;;1.60;;
39974;SDS011;25652;52.852;6.602;2024-02-14T06:25:29;1.60;;;1.50;;
39974;SDS011;25652;52.852;6.602;2024-02-14T06:27:55;1.80;;;1.60;;
39974;SDS011;25652;52.852;6.602;2024-02-14T06:30:20;1.40;;;1.30;;
39974;SDS011;25652;52.852;6.602;2024-02-14T06:32:46;1.43;;;1.33;;
39974;SDS011;25652;52.852;6.602;2024-02-14T06:35:11;1.30;;;1.30;;
39974;SDS011;25652;52.852;6.602;2024-02-14T06:37:37;1.80;;;1.70;;
39974;SDS011;25652;52.852;6.602;2024-02-14T06:40:02;1.63;;;1.53;;
39974;SDS011;25652;52.852;6.602;2024-02-14T06:42:28;1.80;;;1.70;;
39974;SDS011;25652;52.852;6.602;2024-02-14T06:44:53;1.70;;;1.60;;
39974;SDS011;25652;52.852;6.602;2024-02-14T06:47:19;1.80;;;1.70;;
39974;SDS011;25652;52.852;6.602;2024-02-14T06:49:44;1.63;;;1.53;;
39974;SDS011;25652;52.852;6.602;2024-02-14T06:52:10;1.92;;;1.83;;
39974;SDS011;25652;52.852;6.602;2024-02-14T06:54:35;1.80;;;1.70;;
39974;SDS011;25652;52.852;6.602;2024-02-14T06:57:01;1.60;;;1.50;;
39974;SDS011;25652;52.852;6.602;2024-02-14T06:59:26;1.83;;;1.73;;
39974;SDS011;25652;52.852;6.602;2024-02-14T07:01:52;1.80;;;1.70;;
39974;SDS011;25652;52.852;6.602;2024-02-14T07:04:17;1.75;;;1.65;;
39974;SDS011;25652;52.852;6.602;2024-02-14T07:06:43;2.03;;;1.83;;
39974;SDS011;25652;52.852;6.602;2024-02-14T07:09:08;1.73;;;1.63;;
39974;SDS011;25652;52.852;6.602;2024-02-14T07:11:34;2.70;;;1.77;;
39974;SDS011;25652;52.852;6.602;2024-02-14T07:13:59;2.90;;;2.10;;
39974;SDS011;25652;52.852;6.602;2024-02-14T07:16:25;2.20;;;2.00;;
39974;SDS011;25652;52.852;6.602;2024-02-14T07:18:50;1.97;;;1.77;;
39974;SDS011;25652;52.852;6.602;2024-02-14T07:21:16;2.47;;;2.08;;
39974;SDS011;25652;52.852;6.602;2024-02-14T07:23:41;2.60;;;1.93;;
39974;SDS011;25652;52.852;6.602;2024-02-14T07:26:07;2.07;;;1.90;;
39974;SDS011;25652;52.852;6.602;2024-02-14T07:28:32;2.20;;;2.00;;
39974;SDS011;25652;52.852;6.602;2024-02-14T07:30:58;2.20;;;2.00;;
39974;SDS011;25652;52.852;6.602;2024-02-14T07:33:23;2.30;;;2.10;;
39974;SDS011;25652;52.852;6.602;2024-02-14T07:35:49;2.20;;;2.00;;
39974;SDS011;25652;52.852;6.602;2024-02-14T07:38:14;2.20;;;2.00;;
39974;SDS011;25652;52.852;6.602;2024-02-14T07:40:40;2.20;;;1.90;;
39974;SDS011;25652;52.852;6.602;2024-02-14T07:43:05;2.13;;;1.80;;
39974;SDS011;25652;52.852;6.602;2024-02-14T07:45:31;2.50;;;2.10;;
39974;SDS011;25652;52.852;6.602;2024-02-14T07:47:56;2.83;;;2.20;;
39974;SDS011;25652;52.852;6.602;2024-02-14T07:50:22;3.00;;;2.20;;
39974;SDS011;25652;52.852;6.602;2024-02-14T07:52:50;2.13;;;1.90;;
39974;SDS011;25652;52.852;6.602;2024-02-14T07:55:16;2.20;;;2.00;;
39974;SDS011;25652;52.852;6.602;2024-02-14T07:57:41;2.53;;;2.10;;
39974;SDS011;25652;52.852;6.602;2024-02-14T08:00:10;3.25;;;1.83;;
39974;SDS011;25652;52.852;6.602;2024-02-14T08:02:36;2.85;;;2.10;;
39974;SDS011;25652;52.852;6.602;2024-02-14T08:05:04;1.85;;;1.75;;
39974;SDS011;25652;52.852;6.602;2024-02-14T08:07:30;2.47;;;2.10;;
39974;SDS011;25652;52.852;6.602;2024-02-14T08:09:56;2.27;;;2.07;;
39974;SDS011;25652;52.852;6.602;2024-02-14T08:12:22;2.50;;;2.15;;
39974;SDS011;25652;52.852;6.602;2024-02-14T08:14:47;2.40;;;2.20;;
39974;SDS011;25652;52.852;6.602;2024-02-14T08:17:13;3.10;;;2.30;;
39974;SDS011;25652;52.852;6.602;2024-02-14T08:19:38;2.97;;;2.45;;
39974;SDS011;25652;52.852;6.602;2024-02-14T08:22:04;2.93;;;2.63;;
39974;SDS011;25652;52.852;6.602;2024-02-14T08:24:29;2.70;;;2.50;;
39974;SDS011;25652;52.852;6.602;2024-02-14T08:26:55;3.30;;;2.83;;
39974;SDS011;25652;52.852;6.602;2024-02-14T08:29:20;5.20;;;3.20;;
39974;SDS011;25652;52.852;6.602;2024-02-14T08:31:49;3.00;;;2.67;;
39974;SDS011;25652;52.852;6.602;2024-02-14T08:34:14;4.40;;;3.13;;
39974;SDS011;25652;52.852;6.602;2024-02-14T08:36:40;3.47;;;3.07;;
39974;SDS011;25652;52.852;6.602;2024-02-14T08:39:08;3.80;;;3.30;;
39974;SDS011;25652;52.852;6.602;2024-02-14T08:41:34;4.97;;;3.50;;
39974;SDS011;25652;52.852;6.602;2024-02-14T08:43:59;3.73;;;3.40;;
39974;SDS011;25652;52.852;6.602;2024-02-14T08:46:25;3.67;;;3.38;;
39974;SDS011;25652;52.852;6.602;2024-02-14T08:48:51;4.18;;;3.63;;
39974;SDS011;25652;52.852;6.602;2024-02-14T08:51:16;4.47;;;3.93;;
39974;SDS011;25652;52.852;6.602;2024-02-14T08:57:47;31.80;;;16.38;;
39974;SDS011;25652;52.852;6.602;2024-02-14T09:00:12;26.65;;;15.27;;
39974;SDS011;25652;52.852;6.602;2024-02-14T09:02:38;26.15;;;15.63;;
39974;SDS011;25652;52.852;6.602;2024-02-14T09:05:04;21.20;;;14.40;;
39974;SDS011;25652;52.852;6.602;2024-02-14T09:07:41;17.70;;;13.60;;
39974;SDS011;25652;52.852;6.602;2024-02-14T09:10:10;18.15;;;14.25;;
39974;SDS011;25652;52.852;6.602;2024-02-14T09:12:39;17.15;;;14.13;;
39974;SDS011;25652;52.852;6.602;2024-02-14T09:15:04;19.13;;;12.77;;
39974;SDS011;25652;52.852;6.602;2024-02-14T09:17:30;17.85;;;12.80;;
39974;SDS011;25652;52.852;6.602;2024-02-14T09:19:56;15.30;;;12.90;;
39974;SDS011;25652;52.852;6.602;2024-02-14T09:22:21;16.60;;;12.97;;
39974;SDS011;25652;52.852;6.602;2024-02-14T09:24:47;15.13;;;12.65;;
39974;SDS011;25652;52.852;6.602;2024-02-14T09:27:13;15.23;;;12.73;;
39974;SDS011;25652;52.852;6.602;2024-02-14T09:29:42;16.23;;;12.25;;
39974;SDS011;25652;52.852;6.602;2024-02-14T09:32:10;14.65;;;12.63;;
39974;SDS011;25652;52.852;6.602;2024-02-14T09:34:36;15.82;;;12.07;;
39974;SDS011;25652;52.852;6.602;2024-02-14T09:37:01;14.60;;;12.07;;
39974;SDS011;25652;52.852;6.602;2024-02-14T09:39:27;13.80;;;11.55;;
39974;SDS011;25652;52.852;6.602;2024-02-14T09:41:53;13.47;;;11.60;;
39974;SDS011;25652;52.852;6.602;2024-02-14T09:44:23;14.65;;;11.85;;
39974;SDS011;25652;52.852;6.602;2024-02-14T09:46:48;12.35;;;11.05;;
39974;SDS011;25652;52.852;6.602;2024-02-14T09:49:15;11.77;;;10.57;;
39974;SDS011;25652;52.852;6.602;2024-02-14T09:51:43;13.07;;;11.70;;
39974;SDS011;25652;52.852;6.602;2024-02-14T09:54:11;13.18;;;11.63;;
39974;SDS011;25652;52.852;6.602;2024-02-14T09:56:37;13.38;;;11.98;;
39974;SDS011;25652;52.852;6.602;2024-02-14T09:59:02;12.40;;;11.00;;
39974;SDS011;25652;52.852;6.602;2024-02-14T10:01:29;12.35;;;11.05;;
39974;SDS011;25652;52.852;6.602;2024-02-14T10:03:55;12.77;;;10.95;;
39974;SDS011;25652;52.852;6.602;2024-02-14T10:06:21;11.55;;;10.40;;
39974;SDS011;25652;52.852;6.602;2024-02-14T10:08:47;12.25;;;10.55;;
39974;SDS011;25652;52.852;6.602;2024-02-14T10:11:13;11.45;;;10.25;;
39974;SDS011;25652;52.852;6.602;2024-02-14T10:13:38;12.05;;;10.80;;
39974;SDS011;25652;52.852;6.602;2024-02-14T10:16:04;11.20;;;10.20;;
39974;SDS011;25652;52.852;6.602;2024-02-14T10:18:32;11.13;;;9.93;;
39974;SDS011;25652;52.852;6.602;2024-02-14T10:21:00;11.20;;;10.00;;
39974;SDS011;25652;52.852;6.602;2024-02-14T10:23:28;11.47;;;10.27;;
39974;SDS011;25652;52.852;6.602;2024-02-14T10:25:54;11.82;;;10.60;;
39974;SDS011;25652;52.852;6.602;2024-02-14T10:28:21;11.60;;;10.40;;
39974;SDS011;25652;52.852;6.602;2024-02-14T10:30:47;11.98;;;10.85;;
39974;SDS011;25652;52.852;6.602;2024-02-14T10:33:22;13.10;;;10.90;;
39974;SDS011;25652;52.852;6.602;2024-02-14T10:35:47;11.77;;;10.68;;
39974;SDS011;25652;52.852;6.602;2024-02-14T10:38:15;11.87;;;10.73;;
39974;SDS011;25652;52.852;6.602;2024-02-14T10:40:42;11.20;;;10.10;;
39974;SDS011;25652;52.852;6.602;2024-02-14T10:43:08;12.10;;;10.80;;
39974;SDS011;25652;52.852;6.602;2024-02-14T10:45:34;11.67;;;10.47;;
39974;SDS011;25652;52.852;6.602;2024-02-14T10:48:00;11.95;;;10.82;;
39974;SDS011;25652;52.852;6.602;2024-02-14T10:50:28;11.93;;;10.80;;
39974;SDS011;25652;52.852;6.602;2024-02-14T10:52:57;11.70;;;10.50;;
39974;SDS011;25652;52.852;6.602;2024-02-14T10:55:24;11.65;;;10.45;;
39974;SDS011;25652;52.852;6.602;2024-02-14T10:57:55;11.43;;;10.32;;
39974;SDS011;25652;52.852;6.602;2024-02-14T11:03:13;12.07;;;10.88;;
39974;SDS011;25652;52.852;6.602;2024-02-14T11:05:44;11.80;;;10.60;;
39974;SDS011;25652;52.852;6.602;2024-02-14T11:08:14;12.13;;;10.93;;
39974;SDS011;25652;52.852;6.602;2024-02-14T11:10:55;11.68;;;10.48;;
39974;SDS011;25652;52.852;6.602;2024-02-14T11:13:25;11.38;;;10.27;;
39974;SDS011;25652;52.852;6.602;2024-02-14T11:15:51;11.48;;;10.30;;
39974;SDS011;25652;52.852;6.602;2024-02-14T11:18:24;11.83;;;10.67;;
39974;SDS011;25652;52.852;6.602;2024-02-14T11:20:53;12.05;;;10.93;;
39974;SDS011;25652;52.852;6.602;2024-02-14T11:23:22;11.07;;;10.05;;
39974;SDS011;25652;52.852;6.602;2024-02-14T11:25:48;11.77;;;10.68;;
39974;SDS011;25652;52.852;6.602;2024-02-14T11:28:14;12.37;;;11.17;;
39974;SDS011;25652;52.852;6.602;2024-02-14T11:30:43;12.00;;;10.80;;
39974;SDS011;25652;52.852;6.602;2024-02-14T11:33:22;12.03;;;10.83;;
39974;SDS011;25652;52.852;6.602;2024-02-14T11:35:49;11.45;;;10.35;;
39974;SDS011;25652;52.852;6.602;2024-02-14T11:38:19;11.38;;;10.27;;
39974;SDS011;25652;52.852;6.602;2024-02-14T11:40:53;11.45;;;10.35;;
39974;SDS011;25652;52.852;6.602;2024-02-14T11:43:19;11.02;;;10.02;;
39974;SDS011;25652;52.852;6.602;2024-02-14T11:45:45;11.27;;;10.17;;
39974;SDS011;25652;52.852;6.602;2024-02-14T11:48:14;10.55;;;9.48;;
39974;SDS011;25652;52.852;6.602;2024-02-14T11:50:46;10.90;;;9.90;;
39974;SDS011;25652;52.852;6.602;2024-02-14T11:53:15;11.23;;;10.20;;
39974;SDS011;25652;52.852;6.602;2024-02-14T11:55:41;10.70;;;9.50;;
39974;SDS011;25652;52.852;6.602;2024-02-14T11:58:13;10.37;;;9.37;;
39974;SDS011;25652;52.852;6.602;2024-02-14T12:00:54;10.18;;;9.27;;
39974;SDS011;25652;52.852;6.602;2024-02-14T12:03:26;10.23;;;9.32;;
39974;SDS011;25652;52.852;6.602;2024-02-14T12:05:52;10.27;;;9.38;;
39974;SDS011;25652;52.852;6.602;2024-02-14T12:08:18;9.02;;;8.27;;
39974;SDS011;25652;52.852;6.602;2024-02-14T12:11:01;10.13;;;9.20;;
39974;SDS011;25652;52.852;6.602;2024-02-14T12:13:30;9.50;;;8.70;;
39974;SDS011;25652;52.852;6.602;2024-02-14T12:16:04;9.80;;;8.90;;
39974;SDS011;25652;52.852;6.602;2024-02-14T12:18:32;8.77;;;7.97;;
39974;SDS011;25652;52.852;6.602;2024-02-14T12:21:05;9.13;;;8.32;;
39974;SDS011;25652;52.852;6.602;2024-02-14T12:23:44;9.00;;;8.18;;
39974;SDS011;25652;52.852;6.602;2024-02-14T12:26:09;9.15;;;8.35;;
39974;SDS011;25652;52.852;6.602;2024-02-14T12:28:40;8.85;;;8.05;;
39974;SDS011;25652;52.852;6.602;2024-02-14T12:31:10;8.45;;;7.65;;
39974;SDS011;25652;52.852;6.602;2024-02-14T12:33:49;8.75;;;7.90;;
39974;SDS011;25652;52.852;6.602;2024-02-14T12:36:21;8.45;;;7.65;;
39974;SDS011;25652;52.852;6.602;2024-02-14T12:39:10;7.82;;;7.13;;
39974;SDS011;25652;52.852;6.602;2024-02-14T12:41:37;7.80;;;7.10;;
39974;SDS011;25652;52.852;6.602;2024-02-14T12:44:15;8.55;;;7.75;;
39974;SDS011;25652;52.852;6.602;2024-02-14T12:46:40;7.13;;;6.53;;
39974;SDS011;25652;52.852;6.602;2024-02-14T12:49:06;7.13;;;6.50;;
39974;SDS011;25652;52.852;6.602;2024-02-14T12:51:34;7.80;;;7.10;;
39974;SDS011;25652;52.852;6.602;2024-02-14T12:54:09;7.70;;;7.10;;
39974;SDS011;25652;52.852;6.602;2024-02-14T12:56:34;6.75;;;6.18;;
39974;SDS011;25652;52.852;6.602;2024-02-14T12:59:07;7.22;;;6.63;;
39974;SDS011;25652;52.852;6.602;2024-02-14T13:01:39;8.18;;;7.45;;
39974;SDS011;25652;52.852;6.602;2024-02-14T13:04:07;7.13;;;6.47;;
39974;SDS011;25652;52.852;6.602;2024-02-14T13:06:38;7.20;;;6.60;;
39974;SDS011;25652;52.852;6.602;2024-02-14T13:09:21;7.10;;;6.50;;
39974;SDS011;25652;52.852;6.602;2024-02-14T13:11:52;6.95;;;6.35;;
39974;SDS011;25652;52.852;6.602;2024-02-14T13:14:20;7.05;;;6.43;;
39974;SDS011;25652;52.852;6.602;2024-02-14T13:16:54;6.43;;;5.93;;
39974;SDS011;25652;52.852;6.602;2024-02-14T13:19:25;6.57;;;6.07;;
39974;SDS011;25652;52.852;6.602;2024-02-14T13:21:53;6.80;;;6.30;;
39974;SDS011;25652;52.852;6.602;2024-02-14T13:24:55;7.37;;;6.77;;
39974;SDS011;25652;52.852;6.602;2024-02-14T13:27:36;6.37;;;5.87;;
39974;SDS011;25652;52.852;6.602;2024-02-14T13:33:28;7.20;;;6.57;;
39974;SDS011;25652;52.852;6.602;2024-02-14T13:45:42;6.85;;;6.25;;
39974;SDS011;25652;52.852;6.602;2024-02-14T13:48:13;6.60;;;6.00;;
39974;SDS011;25652;52.852;6.602;2024-02-14T13:50:44;6.75;;;6.22;;
39974;SDS011;25652;52.852;6.602;2024-02-14T14:12:11;6.18;;;5.68;;
39974;SDS011;25652;52.852;6.602;2024-02-14T14:14:37;6.15;;;5.65;;
39974;SDS011;25652;52.852;6.602;2024-02-14T14:17:05;6.03;;;5.53;;
39974;SDS011;25652;52.852;6.602;2024-02-14T14:19:33;5.30;;;4.90;;
39974;SDS011;25652;52.852;6.602;2024-02-14T14:24:55;5.45;;;5.00;;
39974;SDS011;25652;52.852;6.602;2024-02-14T14:27:27;6.72;;;5.28;;
39974;SDS011;25652;52.852;6.602;2024-02-14T14:29:59;5.45;;;5.05;;
39974;SDS011;25652;52.852;6.602;2024-02-14T14:32:25;5.22;;;4.82;;
39974;SDS011;25652;52.852;6.602;2024-02-14T14:34:50;5.07;;;4.67;;
39974;SDS011;25652;52.852;6.602;2024-02-14T14:37:34;5.05;;;4.65;;
39974;SDS011;25652;52.852;6.602;2024-02-14T14:39:59;5.13;;;4.68;;
39974;SDS011;25652;52.852;6.602;2024-02-14T14:42:46;5.70;;;5.20;;
39974;SDS011;25652;52.852;6.602;2024-02-14T14:54:20;4.43;;;4.13;;
39974;SDS011;25652;52.852;6.602;2024-02-14T14:56:45;4.93;;;4.53;;
39974;SDS011;25652;52.852;6.602;2024-02-14T14:59:11;4.60;;;4.30;;
39974;SDS011;25652;52.852;6.602;2024-02-14T15:01:36;5.13;;;4.72;;
39974;SDS011;25652;52.852;6.602;2024-02-14T15:04:02;4.57;;;4.17;;
39974;SDS011;25652;52.852;6.602;2024-02-14T15:06:28;4.40;;;4.10;;
39974;SDS011;25652;52.852;6.602;2024-02-14T15:08:53;4.38;;;4.07;;
39974;SDS011;25652;52.852;6.602;2024-02-14T15:11:19;4.40;;;4.00;;
39974;SDS011;25652;52.852;6.602;2024-02-14T15:13:47;4.10;;;3.80;;
39974;SDS011;25652;52.852;6.602;2024-02-14T15:16:21;3.95;;;3.58;;
39974;SDS011;25652;52.852;6.602;2024-02-14T15:18:54;4.20;;;3.90;;
39974;SDS011;25652;52.852;6.602;2024-02-14T15:21:20;4.07;;;3.77;;
39974;SDS011;25652;52.852;6.602;2024-02-14T15:23:54;4.70;;;3.73;;
39974;SDS011;25652;52.852;6.602;2024-02-14T15:26:19;4.40;;;3.92;;
39974;SDS011;25652;52.852;6.602;2024-02-14T15:47:12;3.60;;;3.40;;
39974;SDS011;25652;52.852;6.602;2024-02-14T15:53:17;3.30;;;3.10;;
39974;SDS011;25652;52.852;6.602;2024-02-14T15:55:50;3.60;;;3.30;;